Time;durP1;ratioP1;P1;durP2;ratioP2;P2;SDS_P1;SDS_P2;PMS_P1;PMS_P2;Temp;Humidity;BMP_temperature;BMP_pressure;BME280_temperature;BME280_humidity;BME280_pressure;Samples;Min_cycle;Max_cycle;Signal;HPM_P1;HPM_P2
2021/09/24 00:02:14;;;;;;;5.13;4.00;;;;;;;15.98;39.18;100012.09;5052008;28;20024;-50
2021/09/24 00:04:39;;;;;;;6.00;3.83;;;;;;;16.28;39.65;100011.97;5052052;28;20033;-48
2021/09/24 00:07:05;;;;;;;4.88;3.92;;;;;;;16.01;39.03;100017.81;5052173;28;20037;-49
2021/09/24 00:09:30;;;;;;;4.55;3.70;;;;;;;16.38;38.17;100012.19;5051759;28;20028;-47
2021/09/24 00:11:56;;;;;;;6.18;4.03;;;;;;;16.45;38.54;100006.72;5051881;28;20036;-48
2021/09/24 00:14:21;;;;;;;5.93;3.90;;;;;;;16.44;38.20;100005.06;5051717;28;20037;-47
2021/09/24 00:16:47;;;;;;;4.82;3.92;;;;;;;16.21;38.12;100001.34;5051825;28;20043;-47
2021/09/24 00:19:12;;;;;;;5.40;3.80;;;;;;;16.37;38.37;100009.75;5051919;28;20021;-47
2021/09/24 00:21:38;;;;;;;4.68;3.83;;;;;;;16.48;38.19;100011.59;5051742;28;20033;-46
2021/09/24 00:24:03;;;;;;;4.75;3.60;;;;;;;16.66;37.74;100005.28;5051914;28;20036;-48
2021/09/24 00:26:29;;;;;;;5.22;3.97;;;;;;;16.44;37.94;100006.94;5049919;28;20060;-47
2021/09/24 00:28:55;;;;;;;5.78;3.80;;;;;;;16.18;38.01;100001.00;5051150;28;20086;-50
2021/09/24 00:31:20;;;;;;;4.50;3.67;;;;;;;16.34;40.86;99999.50;5051577;28;20040;-47
2021/09/24 00:33:46;;;;;;;4.50;3.80;;;;;;;16.55;38.98;99995.38;5050400;28;20032;-47
2021/09/24 00:36:11;;;;;;;4.28;3.60;;;;;;;16.65;38.59;99995.56;5051585;28;20385;-48
2021/09/24 00:38:39;;;;;;;4.57;3.85;;;;;;;16.77;38.36;99998.22;5050626;28;20029;-47
2021/09/24 00:41:06;;;;;;;4.70;4.10;;;;;;;16.91;37.20;99994.25;5051771;28;20033;-47
2021/09/24 00:43:31;;;;;;;5.15;4.18;;;;;;;16.92;38.40;99984.31;5049826;28;20035;-47
2021/09/24 00:45:57;;;;;;;5.20;3.97;;;;;;;17.10;37.46;99994.88;5051126;28;20025;-48
2021/09/24 00:48:22;;;;;;;6.10;4.18;;;;;;;17.31;37.25;99993.38;5051142;28;20040;-46
2021/09/24 00:50:48;;;;;;;4.22;3.70;;;;;;;17.42;37.47;99993.53;5050915;28;20096;-47
2021/09/24 00:53:13;;;;;;;6.20;3.83;;;;;;;17.01;38.82;99980.19;5051405;28;20253;-47
2021/09/24 00:55:38;;;;;;;5.45;4.18;;;;;;;16.84;37.21;99974.75;5050972;28;20451;-48
2021/09/24 00:58:04;;;;;;;5.13;4.20;;;;;;;16.77;37.02;99974.88;5050888;28;20086;-48
2021/09/24 01:00:29;;;;;;;5.22;4.18;;;;;;;16.57;37.84;99961.03;5051248;28;20025;-50
2021/09/24 01:02:55;;;;;;;5.68;4.07;;;;;;;16.40;38.01;99958.25;5051060;28;20466;-49
2021/09/24 01:05:20;;;;;;;5.00;4.18;;;;;;;16.29;39.21;99954.53;5051021;28;20048;-50
2021/09/24 01:07:46;;;;;;;5.82;4.00;;;;;;;16.55;39.44;99955.88;5032985;28;20025;-49
2021/09/24 01:10:12;;;;;;;4.60;3.70;;;;;;;16.60;38.41;99947.09;5051625;28;20492;-48
2021/09/24 01:12:38;;;;;;;5.03;4.00;;;;;;;16.40;39.62;99951.00;5050756;28;20468;-47
2021/09/24 01:15:06;;;;;;;5.13;3.75;;;;;;;16.39;40.12;99944.00;5050702;28;20043;-48
2021/09/24 01:17:32;;;;;;;5.20;3.65;;;;;;;16.45;40.62;99952.16;5050700;28;20109;-48
2021/09/24 01:19:57;;;;;;;6.78;4.30;;;;;;;16.49;39.87;99950.66;5050781;28;20107;-49
2021/09/24 01:22:23;;;;;;;5.55;3.83;;;;;;;16.49;38.58;99948.78;5050710;28;20033;-47
2021/09/24 01:24:48;;;;;;;4.65;3.80;;;;;;;16.23;38.99;99944.72;5049444;28;20055;-48
2021/09/24 01:27:14;;;;;;;5.57;4.07;;;;;;;16.29;39.92;99945.66;5050707;28;20499;-47
2021/09/24 01:29:40;;;;;;;4.97;3.97;;;;;;;16.27;40.20;99939.72;5050569;28;20021;-47
2021/09/24 01:32:06;;;;;;;4.68;3.90;;;;;;;16.13;39.58;99947.22;5050696;28;20489;-48
2021/09/24 01:34:31;;;;;;;5.10;3.90;;;;;;;16.20;41.49;99953.25;5050397;28;20032;-50
2021/09/24 01:36:56;;;;;;;5.30;4.07;;;;;;;16.30;39.59;99944.63;5050401;28;20461;-49
2021/09/24 01:39:22;;;;;;;4.90;3.90;;;;;;;16.02;40.44;99944.28;5049152;28;20024;-47
2021/09/24 01:41:48;;;;;;;4.63;3.97;;;;;;;16.10;41.52;99943.09;5050387;28;20370;-49
2021/09/24 01:44:14;;;;;;;5.40;3.55;;;;;;;16.17;40.66;99941.13;5050337;28;20025;-48
2021/09/24 01:46:40;;;;;;;4.22;3.80;;;;;;;16.32;40.01;99916.47;5050620;28;20032;-49
2021/09/24 01:49:06;;;;;;;4.00;3.60;;;;;;;16.37;40.06;99945.28;5050288;28;20025;-49
2021/09/24 01:51:33;;;;;;;5.03;3.80;;;;;;;16.47;39.99;99944.69;5050111;28;20054;-49
2021/09/24 01:53:58;;;;;;;4.55;4.03;;;;;;;16.49;39.94;99938.03;5050087;28;20025;-48
2021/09/24 01:56:24;;;;;;;5.43;3.90;;;;;;;16.29;39.93;99935.72;5050199;28;20106;-49
2021/09/24 01:58:49;;;;;;;4.40;3.90;;;;;;;16.36;39.48;99928.38;5049993;28;20464;-48
2021/09/24 02:01:15;;;;;;;4.72;3.90;;;;;;;16.25;40.53;99925.72;5050181;28;20025;-48
2021/09/24 02:03:40;;;;;;;5.20;3.88;;;;;;;16.35;39.73;99932.09;5050562;28;20025;-50
2021/09/24 02:06:06;;;;;;;5.38;4.05;;;;;;;16.28;39.87;99931.44;5050467;28;20032;-48
2021/09/24 02:08:31;;;;;;;5.35;3.75;;;;;;;16.22;40.20;99924.28;5050217;28;20041;-48
2021/09/24 02:10:57;;;;;;;4.78;3.95;;;;;;;15.85;40.72;99929.13;5050459;28;20032;-48
2021/09/24 02:13:22;;;;;;;7.18;4.20;;;;;;;15.36;42.27;99914.00;5049815;28;20383;-47
2021/09/24 02:15:48;;;;;;;4.50;3.90;;;;;;;15.47;41.84;99915.06;5050124;28;20082;-48
2021/09/24 02:18:13;;;;;;;4.85;3.83;;;;;;;15.37;43.26;99914.84;5050384;28;20040;-48
2021/09/24 02:20:38;;;;;;;4.68;4.07;;;;;;;15.62;42.72;99911.94;5049871;28;20025;-49
2021/09/24 02:23:04;;;;;;;7.05;3.72;;;;;;;15.88;40.74;99921.44;5050150;28;20455;-51
2021/09/24 02:25:29;;;;;;;4.20;3.60;;;;;;;15.95;41.39;99911.38;5050062;28;20020;-50
2021/09/24 02:27:55;;;;;;;5.28;4.28;;;;;;;16.03;39.94;99916.41;5050082;28;20574;-50
2021/09/24 02:30:20;;;;;;;4.60;3.75;;;;;;;16.10;39.95;99915.44;5049773;28;20418;-48
2021/09/24 02:32:46;;;;;;;5.35;4.07;;;;;;;15.98;42.25;99920.84;5049734;28;20032;-49
2021/09/24 02:35:11;;;;;;;5.07;3.95;;;;;;;15.74;41.07;99920.81;5048647;28;20149;-49
2021/09/24 02:37:37;;;;;;;6.07;4.15;;;;;;;15.61;40.94;99911.13;5050012;28;20435;-51
2021/09/24 02:40:03;;;;;;;4.90;3.85;;;;;;;15.56;41.86;99915.56;5049824;28;20465;-50
2021/09/24 02:42:28;;;;;;;4.85;4.00;;;;;;;15.46;42.32;99910.78;5049619;28;20028;-48
2021/09/24 02:44:54;;;;;;;6.60;4.40;;;;;;;15.56;41.33;99902.97;5049774;28;20044;-50
2021/09/24 02:47:19;;;;;;;6.70;3.97;;;;;;;15.62;42.67;99909.25;5049838;28;20074;-48
2021/09/24 02:49:47;;;;;;;6.20;3.80;;;;;;;15.69;42.29;99906.44;5049533;28;20064;-50
2021/09/24 02:52:13;;;;;;;9.30;6.65;;;;;;;15.34;42.31;99905.38;5053454;28;20040;-49
2021/09/24 02:54:39;;;;;;;13.38;8.63;;;;;;;15.36;42.32;99907.81;5053705;28;20024;-49
2021/09/24 02:57:04;;;;;;;21.83;14.20;;;;;;;15.70;40.60;99910.78;5053416;28;20025;-48
2021/09/24 02:59:30;;;;;;;21.38;13.48;;;;;;;15.91;41.00;99904.84;5053549;28;20100;-50
2021/09/24 03:01:57;;;;;;;9.45;6.57;;;;;;;15.81;40.65;99907.31;5053552;28;20032;-50
2021/09/24 03:04:23;;;;;;;6.30;4.70;;;;;;;15.73;40.97;99905.78;5053544;28;20032;-48
2021/09/24 03:06:49;;;;;;;6.72;4.53;;;;;;;15.55;41.22;99903.19;5053235;28;20029;-48
2021/09/24 03:09:14;;;;;;;7.10;3.78;;;;;;;15.52;41.61;99906.34;5053476;28;20029;-47
2021/09/24 03:11:40;;;;;;;8.05;4.10;;;;;;;15.54;40.94;99909.63;5053838;28;20362;-50
2021/09/24 03:14:05;;;;;;;5.60;4.40;;;;;;;15.55;40.64;99904.00;5053701;28;20076;-51
2021/09/24 03:16:31;;;;;;;5.70;4.18;;;;;;;15.47;40.78;99900.84;5054185;28;20025;-49
2021/09/24 03:18:56;;;;;;;6.35;4.20;;;;;;;15.13;41.78;99892.50;5053554;28;20461;-49
2021/09/24 03:21:21;;;;;;;10.00;5.03;;;;;;;14.90;43.57;99893.28;5033681;28;20041;-48
2021/09/24 03:23:47;;;;;;;48.92;32.03;;;;;;;15.00;44.29;99893.53;5033799;28;20034;-51
2021/09/24 03:26:13;;;;;;;12.93;8.40;;;;;;;15.00;43.09;99898.88;5033725;28;20375;-51
2021/09/24 03:28:38;;;;;;;7.07;4.82;;;;;;;14.68;42.29;99893.78;5032970;28;20115;-49
2021/09/24 03:31:04;;;;;;;7.68;4.60;;;;;;;14.85;42.20;99899.31;5033424;28;20555;-50
2021/09/24 03:33:29;;;;;;;11.93;5.20;;;;;;;14.85;42.06;99897.44;5033544;28;20044;-49
2021/09/24 03:35:55;;;;;;;11.27;4.70;;;;;;;14.61;42.71;99901.09;5033193;28;20026;-50
2021/09/24 03:38:20;;;;;;;6.53;4.47;;;;;;;14.69;42.08;99906.13;5032745;28;20041;-49
2021/09/24 03:40:46;;;;;;;6.63;4.70;;;;;;;14.70;41.93;99904.25;5032816;28;20025;-50
2021/09/24 03:43:11;;;;;;;5.90;4.55;;;;;;;14.69;42.66;99906.13;5032117;28;20536;-49
2021/09/24 03:45:37;;;;;;;7.18;4.68;;;;;;;14.59;42.78;99903.16;5032026;28;20031;-52
2021/09/24 03:48:03;;;;;;;8.43;4.90;;;;;;;14.66;42.74;99909.25;5031528;28;20465;-48
2021/09/24 03:50:29;;;;;;;7.70;4.20;;;;;;;14.81;46.98;99912.34;5032147;28;20104;-49
2021/09/24 03:52:54;;;;;;;9.15;4.63;;;;;;;14.95;42.65;99912.16;5052094;28;20036;-49
2021/09/24 03:55:20;;;;;;;7.47;4.75;;;;;;;14.95;42.70;99910.28;5052109;28;20025;-49
2021/09/24 03:57:46;;;;;;;6.30;4.68;;;;;;;14.94;42.87;99911.31;5050385;28;20037;-51
2021/09/24 04:00:11;;;;;;;7.20;4.70;;;;;;;14.87;42.89;99915.97;5040061;28;20024;-49
2021/09/24 04:02:37;;;;;;;7.70;4.85;;;;;;;14.91;42.11;99916.31;5052355;28;20028;-49
2021/09/24 04:05:03;;;;;;;7.35;4.72;;;;;;;14.64;42.64;99916.69;5052359;28;20094;-48
2021/09/24 04:07:28;;;;;;;9.02;5.30;;;;;;;14.44;43.39;99912.38;5052759;28;20416;-47
2021/09/24 04:09:53;;;;;;;10.65;5.38;;;;;;;14.48;44.06;99915.41;5052881;28;20429;-47
2021/09/24 04:12:19;;;;;;;14.80;5.97;;;;;;;14.16;44.63;99917.44;5050962;28;20041;-50
2021/09/24 04:14:44;;;;;;;10.80;5.63;;;;;;;13.80;45.42;99913.69;5052463;28;20071;-51
2021/09/24 04:17:10;;;;;;;12.27;5.53;;;;;;;13.67;45.89;99912.78;5051813;28;20021;-49
2021/09/24 04:19:35;;;;;;;11.45;5.68;;;;;;;13.64;46.44;99910.53;5047928;28;20017;-48
2021/09/24 04:22:01;;;;;;;13.45;5.85;;;;;;;13.61;46.19;99912.81;5052671;28;20465;-52
2021/09/24 04:24:26;;;;;;;10.48;5.80;;;;;;;13.64;47.04;99912.38;5048319;28;20037;-48
2021/09/24 04:26:52;;;;;;;13.07;6.25;;;;;;;13.67;46.21;99907.44;5031837;28;20361;-47
2021/09/24 04:29:17;;;;;;;12.05;6.20;;;;;;;13.65;46.42;99893.47;5032897;28;20044;-49
2021/09/24 04:31:43;;;;;;;11.02;6.35;;;;;;;13.59;46.59;99904.19;5048242;28;20559;-49
2021/09/24 04:34:09;;;;;;;10.65;6.40;;;;;;;13.54;47.17;99912.06;5051991;28;20048;-48
2021/09/24 04:36:35;;;;;;;24.45;12.70;;;;;;;13.76;47.04;99909.81;5051004;28;20496;-52
2021/09/24 04:39:02;;;;;;;23.85;13.15;;;;;;;13.91;46.59;99910.28;5049875;28;20093;-48
2021/09/24 04:41:27;;;;;;;20.98;9.40;;;;;;;13.93;47.03;99910.88;5049465;28;20032;-48
2021/09/24 04:43:53;;;;;;;41.15;24.10;;;;;;;14.15;46.04;99908.59;5049006;28;20141;-50
2021/09/24 04:46:18;;;;;;;28.17;16.13;;;;;;;14.22;45.77;99911.19;5049930;28;20032;-48
2021/09/24 04:48:44;;;;;;;16.55;8.80;;;;;;;14.72;45.29;99911.03;5050300;28;20039;-49
2021/09/24 04:51:10;;;;;;;16.33;9.10;;;;;;;15.18;42.87;99911.41;5049411;28;20493;-49
2021/09/24 04:53:35;;;;;;;16.20;10.23;;;;;;;15.27;43.12;99918.09;5049303;28;20060;-50
2021/09/24 04:56:01;;;;;;;15.98;8.77;;;;;;;15.58;42.31;99903.53;5048775;28;20409;-49
2021/09/24 04:58:26;;;;;;;20.17;10.45;;;;;;;15.53;43.03;99911.44;5048301;28;20047;-49
2021/09/24 05:00:52;;;;;;;21.85;10.38;;;;;;;15.44;43.15;99905.63;5048688;28;20110;-49
2021/09/24 05:03:17;;;;;;;25.55;13.07;;;;;;;15.78;41.71;99903.25;5048564;28;20083;-49
2021/09/24 05:05:43;;;;;;;25.60;11.88;;;;;;;15.64;42.57;99905.28;5049114;28;20028;-47
2021/09/24 05:08:08;;;;;;;21.40;11.93;;;;;;;15.57;43.51;99906.44;5051174;28;20473;-48
2021/09/24 05:10:34;;;;;;;24.00;12.55;;;;;;;15.23;44.65;99911.53;5050748;28;20068;-49
2021/09/24 05:12:59;;;;;;;22.35;11.23;;;;;;;15.72;43.12;99911.34;5050035;28;20049;-50
2021/09/24 05:15:27;;;;;;;23.10;11.25;;;;;;;15.56;43.50;99897.59;5050832;28;20031;-48
2021/09/24 05:17:52;;;;;;;21.90;11.50;;;;;;;15.97;42.51;99905.78;5050443;28;20104;-53
2021/09/24 05:20:18;;;;;;;26.75;12.55;;;;;;;16.56;39.90;99908.34;5050469;28;20128;-48
2021/09/24 05:22:43;;;;;;;23.15;11.77;;;;;;;16.57;40.02;99913.47;5050389;28;20365;-50
2021/09/24 05:25:10;;;;;;;49.47;28.92;;;;;;;16.60;40.37;99906.78;5050471;28;20024;-48
2021/09/24 05:27:35;;;;;;;32.30;19.90;;;;;;;16.54;40.19;99913.94;5049928;28;20052;-50
2021/09/24 05:30:01;;;;;;;20.27;11.77;;;;;;;16.79;39.43;99915.47;5050787;28;20040;-49
2021/09/24 05:32:26;;;;;;;23.00;12.38;;;;;;;16.83;39.21;99921.22;5050412;28;20319;-48
2021/09/24 05:34:52;;;;;;;17.33;10.60;;;;;;;16.52;40.03;99899.13;5050414;28;20029;-48
2021/09/24 05:37:17;;;;;;;23.50;10.05;;;;;;;16.54;39.52;99913.13;5050651;28;20025;-49
2021/09/24 05:39:43;;;;;;;16.75;9.95;;;;;;;16.79;39.77;99916.31;5050407;28;20013;-48
2021/09/24 05:42:08;;;;;;;17.90;9.45;;;;;;;17.04;39.80;99914.34;5050362;28;20021;-48
2021/09/24 05:44:34;;;;;;;16.15;9.52;;;;;;;17.46;39.22;99908.59;5050502;28;20028;-51
2021/09/24 05:46:59;;;;;;;18.38;10.15;;;;;;;17.74;38.43;99905.84;5050276;28;20151;-50
2021/09/24 05:49:29;;;;;;;20.35;9.38;;;;;;;18.22;37.37;99903.56;5050571;28;20079;-49
2021/09/24 05:51:55;;;;;;;20.73;9.20;;;;;;;18.60;36.25;99901.84;5050391;28;20330;-48
2021/09/24 05:54:20;;;;;;;18.80;9.25;;;;;;;18.83;35.85;99899.94;5050765;28;20029;-49
2021/09/24 05:56:46;;;;;;;22.60;9.35;;;;;;;19.03;35.23;99907.44;5050121;28;20470;-49
2021/09/24 05:59:11;;;;;;;14.88;8.55;;;;;;;19.36;35.10;99905.56;5050145;28;20353;-48
2021/09/24 06:01:37;;;;;;;12.95;8.48;;;;;;;19.66;34.88;99900.38;5050001;28;20040;-48
2021/09/24 06:04:02;;;;;;;14.15;8.15;;;;;;;20.01;33.62;99907.13;5050467;28;20029;-48
2021/09/24 06:06:28;;;;;;;20.25;9.00;;;;;;;20.38;33.79;99895.38;5050066;28;20389;-48
2021/09/24 06:08:53;;;;;;;18.10;9.30;;;;;;;20.50;32.64;99887.88;5050180;28;20029;-49
2021/09/24 06:11:19;;;;;;;18.40;10.15;;;;;;;20.60;32.85;99895.22;5050244;28;20079;-47
2021/09/24 06:13:45;;;;;;;18.67;9.40;;;;;;;20.86;32.12;99896.09;5049577;28;20068;-50
2021/09/24 06:16:10;;;;;;;19.40;10.88;;;;;;;20.78;32.21;99888.50;5049784;28;20025;-48
2021/09/24 06:18:36;;;;;;;22.30;9.55;;;;;;;20.50;32.50;99889.75;5049702;28;20032;-48
2021/09/24 06:21:02;;;;;;;16.00;9.18;;;;;;;20.61;32.35;99891.44;5049668;28;20021;-48
2021/09/24 06:23:28;;;;;;;20.65;10.80;;;;;;;20.95;32.25;99880.16;5048938;28;20032;-46
2021/09/24 06:25:55;;;;;;;19.77;10.60;;;;;;;21.27;31.93;99879.09;5052840;28;20032;-47
2021/09/24 06:28:20;;;;;;;18.95;10.05;;;;;;;21.27;31.54;99869.06;5052327;28;20025;-49
2021/09/24 06:30:45;;;;;;;21.13;11.07;;;;;;;21.21;31.29;99867.44;5053886;28;20036;-49
2021/09/24 06:33:11;;;;;;;19.67;10.25;;;;;;;21.21;30.99;99867.44;5054161;28;20107;-47
2021/09/24 06:35:36;;;;;;;25.75;10.60;;;;;;;21.36;31.10;99860.41;5053928;28;20472;-49
2021/09/24 06:38:02;;;;;;;21.77;10.23;;;;;;;21.27;30.99;99860.16;5053706;28;20028;-47
2021/09/24 06:40:27;;;;;;;22.33;9.45;;;;;;;20.64;32.00;99854.97;5053704;28;20020;-47
2021/09/24 06:42:54;;;;;;;17.40;9.15;;;;;;;20.66;31.77;99856.31;5053579;28;20025;-47
2021/09/24 06:45:20;;;;;;;20.95;8.63;;;;;;;20.87;32.06;99854.44;5053804;28;20126;-47
2021/09/24 06:47:45;;;;;;;18.92;8.90;;;;;;;21.22;31.17;99846.59;5053567;28;20494;-47
2021/09/24 06:50:11;;;;;;;15.98;8.60;;;;;;;21.54;31.14;99846.34;5053370;28;20029;-48
2021/09/24 06:52:37;;;;;;;22.48;8.98;;;;;;;21.80;30.50;99847.09;5053133;28;20113;-48
2021/09/24 06:55:03;;;;;;;13.65;8.18;;;;;;;21.85;30.53;99840.84;5053686;28;20071;-46
2021/09/24 06:57:28;;;;;;;18.92;7.30;;;;;;;22.01;29.86;99849.75;5053251;28;20035;-47
2021/09/24 06:59:54;;;;;;;17.90;6.82;;;;;;;21.49;30.94;99846.34;5053233;28;20103;-47
2021/09/24 07:02:19;;;;;;;9.27;6.07;;;;;;;22.25;29.67;99845.31;5053121;28;20029;-47
2021/09/24 07:04:44;;;;;;;17.27;7.80;;;;;;;22.82;28.73;99848.50;5053484;28;20029;-47
2021/09/24 07:07:10;;;;;;;14.90;7.10;;;;;;;22.94;28.25;99852.75;5053136;28;20094;-48
2021/09/24 07:09:36;;;;;;;10.18;6.90;;;;;;;23.01;28.31;99851.34;5052772;28;20037;-46
2021/09/24 07:12:02;;;;;;;11.50;6.72;;;;;;;22.68;29.05;99852.94;5051346;28;20048;-46
2021/09/24 07:14:31;;;;;;;12.73;7.00;;;;;;;22.59;29.19;99844.56;5052828;28;20072;-48
2021/09/24 07:16:56;;;;;;;;;;;;;;;23.77;27.99;99848.22;5053560;28;20078;-46
2021/09/24 07:19:22;;;;;;;11.85;5.90;;;;;;;23.74;27.35;99846.91;5052847;28;20339;-47
2021/09/24 07:21:47;;;;;;;9.77;5.22;;;;;;;23.81;27.47;99850.09;5052566;28;20408;-47
2021/09/24 07:24:13;;;;;;;7.82;5.55;;;;;;;24.44;27.00;99853.66;5052956;28;20120;-47
2021/09/24 07:26:38;;;;;;;8.57;5.63;;;;;;;24.42;26.67;99855.06;5052709;28;20408;-46
2021/09/24 07:29:04;;;;;;;12.40;6.03;;;;;;;24.50;26.57;99849.81;5052732;28;20032;-47
2021/09/24 07:31:29;;;;;;;10.43;5.82;;;;;;;25.32;25.78;99848.56;5052740;28;20067;-48
2021/09/24 07:33:55;;;;;;;9.50;5.80;;;;;;;25.88;25.35;99851.34;5053005;28;20036;-48
2021/09/24 07:36:21;;;;;;;9.85;5.53;;;;;;;25.50;25.67;99851.53;5052158;28;20500;-48
2021/09/24 07:38:47;;;;;;;9.27;5.80;;;;;;;25.50;25.19;99851.53;5052148;28;20033;-50
2021/09/24 07:41:13;;;;;;;9.70;5.80;;;;;;;25.80;25.49;99849.31;5052626;28;20020;-48
2021/09/24 07:43:38;;;;;;;9.77;5.80;;;;;;;25.48;25.58;99856.47;5052547;28;20445;-48
2021/09/24 07:46:04;;;;;;;8.73;5.63;;;;;;;25.96;24.64;99855.31;5052721;28;20534;-46
2021/09/24 07:48:29;;;;;;;10.45;6.00;;;;;;;25.34;25.41;99848.25;5052338;28;20029;-50
2021/09/24 07:50:54;;;;;;;13.15;6.05;;;;;;;24.71;26.01;99833.19;5052457;28;20033;-48
2021/09/24 07:53:20;;;;;;;9.32;5.82;;;;;;;25.35;25.48;99838.97;5052280;28;20487;-48
2021/09/24 07:55:45;;;;;;;8.20;5.55;;;;;;;24.51;26.20;99837.84;5050764;28;20029;-50
2021/09/24 07:58:11;;;;;;;8.35;5.60;;;;;;;25.52;25.47;99843.84;5051285;28;20115;-47
2021/09/24 08:00:36;;;;;;;7.55;5.28;;;;;;;26.39;24.33;99838.56;5050814;28;20098;-50
2021/09/24 08:03:03;;;;;;;6.93;5.15;;;;;;;27.04;23.54;99829.97;5050985;28;20087;-47
2021/09/24 08:05:29;;;;;;;6.88;5.65;;;;;;;27.04;23.81;99821.78;5051792;28;20451;-48
2021/09/24 08:07:55;;;;;;;8.65;5.78;;;;;;;27.14;22.95;99812.53;5051838;28;20025;-47
2021/09/24 08:10:20;;;;;;;12.23;5.57;;;;;;;27.05;22.81;99809.72;5051793;28;20032;-48
2021/09/24 08:12:46;;;;;;;10.75;5.38;;;;;;;26.99;23.30;99808.25;5051361;28;20037;-46
2021/09/24 08:15:12;;;;;;;12.25;5.53;;;;;;;27.32;22.75;99824.38;5052184;28;20029;-48
2021/09/24 08:17:39;;;;;;;9.70;4.97;;;;;;;27.44;22.56;99819.16;5051725;28;20017;-48
2021/09/24 08:20:05;;;;;;;6.72;4.60;;;;;;;27.89;22.38;99831.88;5051545;28;20037;-47
2021/09/24 08:22:34;;;;;;;7.03;5.18;;;;;;;27.82;22.33;99828.78;5051589;28;20025;-47
2021/09/24 08:25:00;;;;;;;9.18;5.28;;;;;;;26.44;23.30;99827.56;5051829;28;20110;-49
2021/09/24 08:27:25;;;;;;;12.40;5.35;;;;;;;25.72;24.26;99824.41;5051553;28;20449;-48
2021/09/24 08:29:51;;;;;;;11.48;5.50;;;;;;;25.42;24.59;99825.78;5051483;28;20029;-48
2021/09/24 08:32:16;;;;;;;10.25;5.30;;;;;;;25.63;24.53;99812.59;5049930;28;20025;-48
2021/09/24 08:34:42;;;;;;;8.88;5.30;;;;;;;26.33;23.85;99808.72;5051552;28;20029;-48
2021/09/24 08:37:07;;;;;;;9.07;4.93;;;;;;;26.26;23.57;99805.59;5051357;28;20036;-48
2021/09/24 08:39:33;;;;;;;8.13;4.95;;;;;;;26.96;22.77;99803.44;5051536;28;20025;-47
2021/09/24 08:41:58;;;;;;;6.85;4.60;;;;;;;27.48;22.40;99802.94;5051170;28;20025;-48
2021/09/24 08:44:24;;;;;;;9.55;4.45;;;;;;;28.14;21.94;99810.38;5049889;28;20496;-48
2021/09/24 08:46:50;;;;;;;5.82;4.72;;;;;;;28.38;21.39;99793.50;5051734;28;20338;-46
2021/09/24 08:49:15;;;;;;;6.70;4.75;;;;;;;28.32;21.62;99798.34;5050104;28;20090;-48
2021/09/24 08:51:41;;;;;;;5.85;4.35;;;;;;;28.69;21.27;99796.09;5016770;28;20048;-47
2021/09/24 08:54:07;;;;;;;6.72;4.90;;;;;;;27.78;21.60;99784.03;5049789;28;20028;-48
2021/09/24 08:56:32;;;;;;;6.93;4.85;;;;;;;28.03;21.28;99780.59;5050987;28;20020;-49
2021/09/24 08:58:57;;;;;;;6.35;4.70;;;;;;;27.66;21.83;99773.72;5050755;28;20047;-47
2021/09/24 09:01:23;;;;;;;5.95;4.20;;;;;;;28.52;21.49;99774.22;5051034;28;20029;-48
2021/09/24 09:03:48;;;;;;;8.40;4.85;;;;;;;28.82;20.75;99780.63;5050770;28;20035;-50
2021/09/24 09:06:18;;;;;;;7.82;4.50;;;;;;;29.27;20.16;99779.44;5050856;28;20090;-48
2021/09/24 09:08:44;;;;;;;5.85;4.00;;;;;;;29.26;19.86;99773.13;5050577;28;20076;-48
2021/09/24 09:11:18;;;;;;;8.45;4.47;;;;;;;28.96;20.92;99774.94;5051178;28;20032;-49
2021/09/24 09:13:50;;;;;;;10.55;4.47;;;;;;;29.09;20.35;99782.16;5050520;28;20056;-48
2021/09/24 09:16:26;;;;;;;5.55;3.95;;;;;;;29.24;20.45;99770.72;5050873;28;20202;-48
2021/09/24 09:19:10;;;;;;;6.35;3.90;;;;;;;29.37;20.09;99776.31;5049165;28;20032;-48
2021/09/24 09:21:41;;;;;;;6.03;4.03;;;;;;;29.77;19.49;99767.75;5030383;28;20040;-47
2021/09/24 09:24:21;;;;;;;4.97;3.97;;;;;;;30.06;18.89;99760.63;5030715;28;20037;-48
2021/09/24 09:26:47;;;;;;;6.05;3.83;;;;;;;30.00;18.69;99758.06;5030216;28;20038;-48
2021/09/24 09:29:13;;;;;;;6.78;4.10;;;;;;;29.90;19.14;99758.47;5030377;28;20025;-47
2021/09/24 09:31:39;;;;;;;5.65;4.07;;;;;;;29.66;19.37;99756.31;5029644;28;20029;-49
2021/09/24 09:34:06;;;;;;;3.88;3.47;;;;;;;29.44;18.82;99755.47;5030246;28;20025;-50
2021/09/24 09:36:40;;;;;;;6.05;3.65;;;;;;;28.61;19.80;99747.66;5030438;28;20120;-48
2021/09/24 09:39:13;;;;;;;5.43;3.38;;;;;;;28.72;19.56;99737.19;5050327;28;20180;-49
2021/09/24 09:41:53;;;;;;;4.20;3.67;;;;;;;28.36;19.45;99735.56;5050298;28;20464;-48
2021/09/24 09:44:28;;;;;;;4.13;3.47;;;;;;;28.31;19.38;99725.59;5050112;28;20127;-48
2021/09/24 09:46:54;;;;;;;5.88;3.22;;;;;;;28.12;19.77;99722.38;5050043;28;20116;-50
2021/09/24 09:49:19;;;;;;;6.45;3.53;;;;;;;28.20;19.00;99730.59;5049746;28;20037;-48
2021/09/24 09:51:46;;;;;;;4.18;3.38;;;;;;;28.35;19.69;99725.75;5049389;28;20495;-49
2021/09/24 09:54:25;;;;;;;5.65;3.40;;;;;;;28.96;18.71;99718.25;5050392;28;20029;-48
2021/09/24 09:56:50;;;;;;;6.82;3.60;;;;;;;28.93;19.46;99713.44;5049554;28;20021;-48
2021/09/24 09:59:32;;;;;;;6.50;3.70;;;;;;;29.47;18.81;99701.94;5049365;28;20040;-48
2021/09/24 10:02:20;;;;;;;4.20;3.50;;;;;;;28.83;19.16;99703.63;5050097;28;20112;-49
2021/09/24 10:04:46;;;;;;;4.30;3.45;;;;;;;28.66;19.44;99703.69;5050006;28;20459;-51
2021/09/24 10:07:19;;;;;;;4.22;3.33;;;;;;;28.46;19.59;99692.28;5050169;28;20029;-51
2021/09/24 10:09:45;;;;;;;4.97;3.30;;;;;;;28.79;19.06;99689.00;5049928;28;20139;-48
2021/09/24 10:12:29;;;;;;;5.80;3.40;;;;;;;28.76;18.47;99684.16;5048184;28;20041;-48
2021/09/24 10:14:54;;;;;;;5.28;3.30;;;;;;;29.03;18.71;99685.69;5049609;28;20060;-50
2021/09/24 10:17:21;;;;;;;5.20;3.10;;;;;;;28.35;18.79;99674.59;5049649;28;20033;-50
2021/09/24 10:19:47;;;;;;;7.95;3.67;;;;;;;28.99;18.40;99675.72;5049669;28;20025;-48
2021/09/24 10:22:12;;;;;;;5.70;3.30;;;;;;;28.83;17.88;99667.25;5050087;28;20032;-49
2021/09/24 10:24:41;;;;;;;4.57;2.90;;;;;;;28.85;17.85;99671.25;5049812;28;20171;-49
2021/09/24 10:27:07;;;;;;;5.30;3.10;;;;;;;28.37;18.58;99661.38;5049682;28;20029;-48
2021/09/24 10:29:36;;;;;;;4.40;3.25;;;;;;;28.36;18.88;99657.03;5047913;28;20401;-48
2021/09/24 10:32:15;;;;;;;4.72;2.75;;;;;;;29.00;17.93;99655.44;5031742;28;20138;-50
2021/09/24 10:35:19;;;;;;;;;;;;;;;27.88;18.07;99641.59;5050232;28;20071;-48
2021/09/24 10:37:48;;;;;;;6.70;2.90;;;;;;;28.61;18.47;99649.09;5047598;28;20063;-48
2021/09/24 10:40:19;;;;;;;5.22;2.95;;;;;;;29.17;18.12;99636.19;5031190;28;20123;-49
2021/09/24 10:42:47;;;;;;;6.25;3.00;;;;;;;28.68;18.10;99641.19;5048607;28;20053;-50
2021/09/24 10:45:21;;;;;;;5.38;2.88;;;;;;;29.15;18.15;99635.72;5049823;28;20405;-48
2021/09/24 10:48:01;;;;;;;3.53;2.80;;;;;;;28.93;17.48;99630.47;5049434;28;20477;-48
2021/09/24 10:50:38;;;;;;;4.10;2.80;;;;;;;29.08;17.09;99629.91;5049554;28;20061;-49
2021/09/24 10:53:09;;;;;;;6.97;2.60;;;;;;;29.32;16.90;99618.38;5049468;28;20055;-50
2021/09/24 10:55:48;;;;;;;3.65;2.70;;;;;;;29.00;17.13;99622.56;5049559;28;20028;-49
2021/09/24 10:58:26;;;;;;;2.85;2.55;;;;;;;29.56;16.75;99609.50;5048606;28;20477;-48
2021/09/24 11:00:51;;;;;;;5.28;2.90;;;;;;;29.56;16.35;99605.94;5049239;28;20051;-48
2021/09/24 11:03:22;;;;;;;7.30;2.80;;;;;;;29.34;16.43;99616.09;5049190;28;20029;-50
2021/09/24 11:05:56;;;;;;;3.45;2.50;;;;;;;29.31;16.98;99605.81;5049727;28;20040;-49
2021/09/24 11:11:13;;;;;;;4.03;2.80;;;;;;;28.56;17.37;99591.81;5049487;28;20037;-50
2021/09/24 11:13:43;;;;;;;2.95;2.50;;;;;;;29.20;17.10;99588.94;5052706;28;20051;-49
2021/09/24 11:16:37;;;;;;;3.22;2.63;;;;;;;29.09;17.32;99586.88;5053080;28;20382;-48
2021/09/24 11:19:03;;;;;;;3.40;2.88;;;;;;;28.62;17.63;99579.56;5052494;28;20364;-51
2021/09/24 11:21:31;;;;;;;9.25;2.70;;;;;;;28.94;16.88;99553.47;5052957;28;20025;-51
2021/09/24 11:23:58;;;;;;;5.93;2.90;;;;;;;28.11;17.98;99565.69;5053194;28;20114;-49
2021/09/24 11:26:31;;;;;;;4.78;2.97;;;;;;;27.57;18.41;99557.84;5052818;28;20561;-49
2021/09/24 11:29:10;;;;;;;3.28;2.60;;;;;;;28.21;18.27;99553.59;5052665;28;20032;-47
2021/09/24 11:31:53;;;;;;;4.78;2.80;;;;;;;28.11;18.18;99543.78;5052631;28;20537;-49